createdAt,value
2018-09-05T00:00:15.135Z,17.40
2018-09-05T00:02:43.494Z,17.40
2018-09-05T00:05:11.903Z,17.40
2018-09-05T00:07:40.343Z,17.40
2018-09-05T00:10:08.676Z,17.40
2018-09-05T00:12:37.025Z,17.30
2018-09-05T00:15:05.643Z,17.30
2018-09-05T00:17:34.090Z,17.30
2018-09-05T00:20:02.896Z,17.20
2018-09-05T00:22:31.289Z,17.20
2018-09-05T00:24:59.636Z,17.20
2018-09-05T00:27:27.959Z,17.10
2018-09-05T00:29:56.363Z,17.10
2018-09-05T00:32:24.807Z,17.00
2018-09-05T00:34:53.150Z,17.00
2018-09-05T00:37:22.254Z,16.90
2018-09-05T00:39:50.622Z,16.90
2018-09-05T00:42:19.054Z,16.80
2018-09-05T00:44:47.386Z,16.80
2018-09-05T00:47:15.796Z,16.80
2018-09-05T00:49:44.194Z,16.70
2018-09-05T00:52:12.988Z,16.70
2018-09-05T00:54:41.378Z,16.70
2018-09-05T00:57:09.708Z,16.70
2018-09-05T00:59:38.059Z,16.60
2018-09-05T01:02:06.460Z,16.60
2018-09-05T01:04:34.859Z,16.50
2018-09-05T01:07:14.586Z,16.50
2018-09-05T01:09:43.006Z,16.50
2018-09-05T01:12:11.331Z,16.50
2018-09-05T01:14:39.700Z,16.50
2018-09-05T01:17:08.034Z,16.40
2018-09-05T01:19:36.435Z,16.40
2018-09-05T01:22:04.774Z,16.40
2018-09-05T01:24:33.142Z,16.30
2018-09-05T01:27:01.499Z,16.30
2018-09-05T01:29:29.892Z,16.30
2018-09-05T01:31:58.302Z,16.30
2018-09-05T01:34:26.684Z,16.20
2018-09-05T01:36:55.030Z,16.20
2018-09-05T01:39:23.386Z,16.20
2018-09-05T01:41:51.819Z,16.10
2018-09-05T01:44:20.254Z,16.10
2018-09-05T01:46:48.598Z,16.10
2018-09-05T01:49:17.094Z,16.10
2018-09-05T01:51:45.447Z,16.00
2018-09-05T01:54:15.804Z,16.00
2018-09-05T01:56:44.754Z,16.00
2018-09-05T01:59:13.107Z,16.00
2018-09-05T02:01:41.419Z,16.00
2018-09-05T02:04:09.772Z,15.90
2018-09-05T02:06:38.116Z,15.90
2018-09-05T02:09:10.174Z,15.90
2018-09-05T02:11:38.510Z,15.80
2018-09-05T02:14:06.850Z,15.80
2018-09-05T02:16:35.208Z,15.80
2018-09-05T02:19:03.566Z,15.70
2018-09-05T02:21:32.021Z,15.70
2018-09-05T02:24:00.406Z,15.70
2018-09-05T02:26:29.321Z,15.70
2018-09-05T02:28:57.771Z,15.70
2018-09-05T02:31:26.474Z,15.70
2018-09-05T02:33:54.836Z,15.70
2018-09-05T02:36:23.175Z,15.70
2018-09-05T02:38:51.535Z,15.70
2018-09-05T02:41:19.932Z,15.80
2018-09-05T02:43:53.464Z,15.80
2018-09-05T02:46:22.010Z,15.80
2018-09-05T02:48:50.950Z,15.70
2018-09-05T02:51:19.290Z,15.70
2018-09-05T02:53:47.675Z,15.70
2018-09-05T02:56:16.022Z,15.70
2018-09-05T02:58:44.432Z,15.70
2018-09-05T03:01:12.743Z,15.60
2018-09-05T03:03:41.092Z,15.40
2018-09-05T03:06:09.421Z,15.40
2018-09-05T03:08:37.765Z,15.30
2018-09-05T03:11:06.093Z,15.40
2018-09-05T03:13:34.449Z,15.40
2018-09-05T03:16:02.833Z,15.50
2018-09-05T03:18:31.167Z,15.50
2018-09-05T03:20:59.494Z,15.50
2018-09-05T03:23:27.935Z,15.60
2018-09-05T03:25:56.288Z,15.60
2018-09-05T03:28:24.615Z,15.60
2018-09-05T03:30:52.930Z,15.60
2018-09-05T03:33:21.258Z,15.60
2018-09-05T03:35:49.631Z,15.60
2018-09-05T03:38:17.971Z,15.50
2018-09-05T03:40:46.837Z,15.50
2018-09-05T03:43:15.184Z,15.40
2018-09-05T03:45:43.506Z,15.40
2018-09-05T03:48:11.862Z,15.40
2018-09-05T03:50:40.202Z,15.40
2018-09-05T03:53:08.507Z,15.30
2018-09-05T03:55:36.861Z,15.30
2018-09-05T03:58:05.295Z,15.30
2018-09-05T04:00:35.251Z,15.20
2018-09-05T04:03:04.736Z,15.20
2018-09-05T04:05:33.211Z,15.20
2018-09-05T04:08:02.277Z,15.20
2018-09-05T04:10:30.660Z,15.20
2018-09-05T04:12:59.002Z,15.20
2018-09-05T04:15:27.339Z,15.20
2018-09-05T04:17:55.665Z,15.10
2018-09-05T04:20:23.999Z,15.20
2018-09-05T04:22:52.319Z,15.10
2018-09-05T04:25:20.691Z,15.10
2018-09-05T04:27:49.139Z,15.00
2018-09-05T04:30:17.499Z,15.00
2018-09-05T04:32:45.808Z,15.00
2018-09-05T04:35:14.132Z,15.00
2018-09-05T04:37:42.497Z,15.00
2018-09-05T04:40:11.704Z,14.90
2018-09-05T04:42:40.001Z,14.90
2018-09-05T04:45:08.397Z,14.80
2018-09-05T04:47:36.979Z,14.70
2018-09-05T04:50:05.429Z,14.60
2018-09-05T04:52:33.835Z,14.50
2018-09-05T04:55:02.124Z,14.50
2018-09-05T04:57:30.481Z,14.50
2018-09-05T04:59:58.819Z,14.50
2018-09-05T05:02:27.194Z,14.60
2018-09-05T05:04:55.581Z,14.60
2018-09-05T05:07:24.013Z,14.60
2018-09-05T05:09:52.354Z,14.60
2018-09-05T05:12:20.751Z,14.60
2018-09-05T05:14:49.116Z,14.60
2018-09-05T05:17:17.492Z,14.60
2018-09-05T05:19:46.244Z,14.60
2018-09-05T05:22:14.689Z,14.60
2018-09-05T05:24:43.027Z,14.60
2018-09-05T05:27:11.380Z,14.50
2018-09-05T05:29:39.726Z,14.50
2018-09-05T05:32:08.041Z,14.50
2018-09-05T05:34:36.421Z,14.50
2018-09-05T05:37:04.948Z,14.50
2018-09-05T05:39:33.295Z,14.60
2018-09-05T05:42:01.672Z,14.60
2018-09-05T05:44:30.000Z,14.70
2018-09-05T05:46:58.359Z,14.70
2018-09-05T05:49:26.695Z,14.80
2018-09-05T05:51:55.051Z,14.80
2018-09-05T05:54:23.527Z,14.80
2018-09-05T05:56:51.929Z,14.90
2018-09-05T05:59:20.838Z,14.90
2018-09-05T06:01:49.211Z,15.00
2018-09-05T06:04:17.658Z,15.00
2018-09-05T06:06:46.153Z,15.00
2018-09-05T06:09:14.466Z,15.10
2018-09-05T06:11:42.873Z,15.10
2018-09-05T06:14:11.217Z,15.10
2018-09-05T06:16:39.551Z,15.20
2018-09-05T06:19:07.963Z,15.20
2018-09-05T06:21:36.385Z,15.30
2018-09-05T06:24:05.339Z,15.50
2018-09-05T06:26:33.687Z,15.60
2018-09-05T06:29:02.061Z,15.70
2018-09-05T06:31:30.963Z,15.80
2018-09-05T06:34:00.565Z,15.90
2018-09-05T06:36:29.134Z,15.90
2018-09-05T06:38:57.534Z,16.00
2018-09-05T06:41:25.924Z,16.10
2018-09-05T06:43:54.262Z,16.10
2018-09-05T06:46:22.713Z,16.10
2018-09-05T06:48:51.139Z,16.20
2018-09-05T06:51:19.480Z,16.30
2018-09-05T06:53:47.878Z,16.40
2018-09-05T06:56:16.200Z,16.50
2018-09-05T06:58:44.566Z,16.60
2018-09-05T07:01:12.937Z,16.70
2018-09-05T07:03:41.389Z,16.80
2018-09-05T07:06:09.641Z,16.90
2018-09-05T07:08:37.995Z,17.00
2018-09-05T07:11:06.348Z,17.10
2018-09-05T07:13:34.688Z,17.10
2018-09-05T07:16:03.035Z,17.20
2018-09-05T07:18:31.716Z,17.40
2018-09-05T07:21:05.683Z,17.50
2018-09-05T07:23:28.388Z,17.60
2018-09-05T07:25:57.539Z,17.70
2018-09-05T07:28:25.904Z,17.80
2018-09-05T07:30:54.366Z,17.90
2018-09-05T07:33:22.685Z,18.10
2018-09-05T07:35:51.624Z,18.20
2018-09-05T07:38:21.005Z,18.30
2018-09-05T07:40:49.341Z,18.40
2018-09-05T07:43:17.716Z,18.50
2018-09-05T07:45:46.055Z,18.70
2018-09-05T07:48:14.420Z,18.80
2018-09-05T07:50:42.824Z,18.90
2018-09-05T07:53:11.334Z,19.10
2018-09-05T07:55:39.692Z,19.20
2018-09-05T07:58:08.024Z,19.30
2018-09-05T08:00:36.389Z,19.50
2018-09-05T08:03:04.856Z,19.60
2018-09-05T08:05:34.026Z,19.80
2018-09-05T08:08:02.365Z,20.00
2018-09-05T08:10:30.681Z,20.10
2018-09-05T08:12:59.140Z,20.30
2018-09-05T08:15:27.614Z,20.40
2018-09-05T08:17:55.977Z,20.50
2018-09-05T08:20:24.304Z,20.70
2018-09-05T08:22:52.624Z,20.90
2018-09-05T08:25:20.924Z,21.00
2018-09-05T08:27:49.241Z,21.10
2018-09-05T08:30:17.709Z,21.30
2018-09-05T08:32:46.048Z,21.50
2018-09-05T08:35:14.537Z,21.60
2018-09-05T08:37:43.609Z,21.80
2018-09-05T08:40:11.972Z,22.00
2018-09-05T08:42:40.325Z,22.20
2018-09-05T08:45:08.787Z,22.30
2018-09-05T08:47:37.752Z,22.40
2018-09-05T08:50:06.138Z,22.60
2018-09-05T08:52:35.206Z,22.70
2018-09-05T08:55:03.535Z,22.80
2018-09-05T08:57:31.937Z,22.90
2018-09-05T09:00:00.260Z,23.00
2018-09-05T09:02:29.252Z,23.20
2018-09-05T09:04:57.639Z,23.30
2018-09-05T09:07:25.909Z,23.40
2018-09-05T09:09:54.620Z,23.50
2018-09-05T09:12:22.952Z,23.60
2018-09-05T09:14:51.844Z,23.80
2018-09-05T09:17:20.933Z,23.90
2018-09-05T09:19:49.294Z,23.90
2018-09-05T09:22:17.784Z,24.10
2018-09-05T09:24:46.184Z,24.20
2018-09-05T09:27:14.524Z,24.40
2018-09-05T09:29:42.871Z,24.50
2018-09-05T09:32:11.194Z,24.60
2018-09-05T09:34:39.539Z,24.80
2018-09-05T09:37:07.877Z,24.90
2018-09-05T09:39:36.200Z,25.00
2018-09-05T09:42:04.944Z,25.00
2018-09-05T09:44:33.259Z,24.80
2018-09-05T09:47:01.605Z,25.00
2018-09-05T09:49:29.956Z,25.10
2018-09-05T09:52:03.602Z,25.30
2018-09-05T09:54:31.985Z,25.60
2018-09-05T09:57:00.388Z,25.70
2018-09-05T09:59:28.743Z,26.00
2018-09-05T10:04:04.957Z,26.20
2018-09-05T10:06:38.541Z,26.40
2018-09-05T10:09:13.391Z,26.60
2018-09-05T10:11:48.017Z,26.70
2018-09-05T10:14:21.787Z,26.60
2018-09-05T10:16:55.999Z,26.50
2018-09-05T10:19:24.346Z,26.60
2018-09-05T10:21:54.156Z,26.70
2018-09-05T10:24:22.588Z,26.80
2018-09-05T10:26:51.298Z,26.90
2018-09-05T10:29:19.658Z,27.20
2018-09-05T10:31:48.251Z,27.30
2018-09-05T10:34:16.528Z,27.20
2018-09-05T10:36:45.396Z,27.30
2018-09-05T10:39:13.776Z,27.30
2018-09-05T10:41:42.118Z,27.40
2018-09-05T10:44:10.598Z,27.40
2018-09-05T10:46:39.141Z,27.40
2018-09-05T10:49:07.963Z,27.40
2018-09-05T10:51:41.540Z,27.30
2018-09-05T10:54:10.038Z,26.80
2018-09-05T10:56:38.503Z,26.60
2018-09-05T10:59:06.977Z,26.40
2018-09-05T11:01:35.328Z,26.40
2018-09-05T11:04:03.654Z,26.80
2018-09-05T11:06:32.069Z,27.00
2018-09-05T11:09:00.367Z,26.70
2018-09-05T11:11:28.802Z,26.70
2018-09-05T11:13:57.148Z,26.60
2018-09-05T11:16:25.501Z,26.50
2018-09-05T11:18:53.863Z,26.40
2018-09-05T11:21:22.341Z,26.40
2018-09-05T11:23:50.592Z,26.40
2018-09-05T11:26:18.968Z,26.50
2018-09-05T11:28:47.327Z,26.60
2018-09-05T11:31:15.795Z,26.60
2018-09-05T11:33:44.147Z,26.90
2018-09-05T11:36:12.499Z,27.30
2018-09-05T11:38:40.869Z,27.50
2018-09-05T11:41:09.426Z,27.50
2018-09-05T11:43:38.033Z,27.30
2018-09-05T11:46:06.507Z,27.60
2018-09-05T11:48:34.834Z,27.50
2018-09-05T11:51:03.200Z,27.40
2018-09-05T11:53:31.594Z,27.30
2018-09-05T11:55:59.945Z,27.10
2018-09-05T11:58:28.314Z,26.90
2018-09-05T12:00:56.737Z,26.70
2018-09-05T12:03:25.132Z,26.50
2018-09-05T12:05:53.451Z,26.40
2018-09-05T12:08:21.843Z,26.30
2018-09-05T12:10:50.209Z,26.30
2018-09-05T12:13:18.573Z,26.50
2018-09-05T12:15:46.914Z,26.90
2018-09-05T12:18:15.301Z,27.10
2018-09-05T12:20:43.678Z,27.10
2018-09-05T12:23:12.076Z,27.10
2018-09-05T12:25:40.423Z,27.10
2018-09-05T12:28:08.774Z,27.00
2018-09-05T12:30:37.223Z,26.80
2018-09-05T12:33:05.591Z,26.80
2018-09-05T12:35:33.944Z,26.90
2018-09-05T12:38:02.746Z,27.00
2018-09-05T12:40:31.156Z,27.20
2018-09-05T12:42:59.593Z,27.30
2018-09-05T12:45:27.956Z,27.30
2018-09-05T12:47:56.316Z,27.20
2018-09-05T12:50:24.670Z,27.10
2018-09-05T12:52:53.194Z,27.10
2018-09-05T12:55:22.261Z,27.20
2018-09-05T12:57:50.629Z,27.10
2018-09-05T13:00:18.972Z,27.10
2018-09-05T13:02:47.336Z,27.30
2018-09-05T13:05:16.508Z,27.30
2018-09-05T13:07:44.872Z,27.50
2018-09-05T13:10:13.214Z,27.90
2018-09-05T13:12:41.938Z,28.60
2018-09-05T13:15:10.435Z,29.30
2018-09-05T13:17:39.435Z,29.70
2018-09-05T13:20:07.764Z,29.50
2018-09-05T13:22:36.124Z,29.50
2018-09-05T13:25:05.374Z,29.30
2018-09-05T13:27:33.894Z,29.10
2018-09-05T13:30:02.410Z,28.90
2018-09-05T13:32:30.878Z,28.70
2018-09-05T13:34:59.278Z,28.60
2018-09-05T13:37:27.802Z,28.60
2018-09-05T13:39:56.646Z,28.50
2018-09-05T13:42:24.988Z,28.30
2018-09-05T13:44:53.573Z,28.20
2018-09-05T13:47:21.933Z,28.10
2018-09-05T13:49:50.320Z,28.00
2018-09-05T13:52:19.732Z,27.90
2018-09-05T13:54:48.119Z,27.80
2018-09-05T13:57:16.457Z,27.80
2018-09-05T13:59:45.193Z,27.80
2018-09-05T14:02:13.554Z,27.70
2018-09-05T14:04:41.942Z,27.60
2018-09-05T14:07:10.319Z,27.50
2018-09-05T14:09:38.674Z,27.40
2018-09-05T14:12:07.050Z,27.20
2018-09-05T14:14:35.904Z,27.20
2018-09-05T14:17:04.252Z,27.10
2018-09-05T14:19:32.627Z,27.00
2018-09-05T14:22:01.032Z,27.00
2018-09-05T14:24:29.414Z,27.10
2018-09-05T14:26:58.256Z,27.10
2018-09-05T14:29:26.629Z,27.10
2018-09-05T14:31:54.992Z,27.10
2018-09-05T14:34:23.307Z,27.10
2018-09-05T14:36:51.686Z,27.20
2018-09-05T14:39:20.072Z,27.60
2018-09-05T14:41:48.386Z,28.00
2018-09-05T14:44:16.740Z,28.00
2018-09-05T14:46:45.120Z,28.00
2018-09-05T14:49:13.449Z,27.90
2018-09-05T14:51:42.001Z,27.80
2018-09-05T14:54:11.739Z,27.70
2018-09-05T14:56:40.063Z,27.60
2018-09-05T14:59:08.416Z,27.50
2018-09-05T15:01:36.894Z,27.40
2018-09-05T15:04:05.350Z,27.50
2018-09-05T15:06:33.814Z,27.50
2018-09-05T15:09:02.098Z,27.50
2018-09-05T15:11:30.428Z,27.40
2018-09-05T15:13:58.784Z,27.30
2018-09-05T15:16:27.155Z,27.30
2018-09-05T15:18:55.520Z,27.20
2018-09-05T15:21:23.857Z,27.20
2018-09-05T15:23:52.223Z,27.10
2018-09-05T15:26:20.565Z,27.00
2018-09-05T15:28:49.053Z,26.80
2018-09-05T15:31:17.316Z,26.70
2018-09-05T15:33:45.766Z,26.50
2018-09-05T15:36:14.111Z,26.40
2018-09-05T15:38:42.469Z,26.20
2018-09-05T15:41:10.867Z,26.10
2018-09-05T15:43:39.364Z,25.90
2018-09-05T15:46:07.756Z,25.90
2018-09-05T15:48:36.116Z,25.80
2018-09-05T15:51:04.548Z,25.80
2018-09-05T15:53:32.943Z,25.50
2018-09-05T15:56:01.331Z,25.40
2018-09-05T15:58:29.776Z,25.40
2018-09-05T16:00:58.117Z,25.40
2018-09-05T16:03:26.593Z,25.40
2018-09-05T16:05:54.915Z,25.40
2018-09-05T16:08:23.279Z,25.30
2018-09-05T16:10:51.692Z,25.20
2018-09-05T16:13:20.104Z,25.20
2018-09-05T16:15:48.489Z,25.00
2018-09-05T16:18:16.938Z,24.90
2018-09-05T16:20:45.315Z,24.80
2018-09-05T16:23:13.675Z,24.70
2018-09-05T16:25:42.787Z,24.60
2018-09-05T16:28:11.158Z,24.60
2018-09-05T16:30:40.269Z,24.50
2018-09-05T16:33:08.605Z,24.40
2018-09-05T16:35:37.112Z,24.30
2018-09-05T16:38:05.452Z,24.20
2018-09-05T16:40:33.828Z,24.20
2018-09-05T16:43:02.287Z,24.10
2018-09-05T16:45:30.707Z,24.10
2018-09-05T16:47:59.096Z,24.20
2018-09-05T16:50:27.456Z,24.10
2018-09-05T16:52:55.821Z,24.00
2018-09-05T16:55:24.299Z,23.90
2018-09-05T16:57:52.636Z,23.80
2018-09-05T17:00:20.996Z,23.70
2018-09-05T17:02:49.392Z,23.70
2018-09-05T17:05:17.736Z,23.60
2018-09-05T17:07:46.129Z,23.50
2018-09-05T17:10:15.336Z,23.40
2018-09-05T17:12:43.779Z,23.30
2018-09-05T17:15:12.336Z,23.20
2018-09-05T17:17:40.728Z,23.10
2018-09-05T17:20:09.132Z,23.00
2018-09-05T17:22:37.489Z,22.90
2018-09-05T17:25:05.865Z,22.80
2018-09-05T17:27:34.203Z,22.70
2018-09-05T17:30:02.705Z,22.70
2018-09-05T17:32:31.059Z,22.60
2018-09-05T17:34:59.394Z,22.60
2018-09-05T17:37:27.719Z,22.50
2018-09-05T17:39:56.222Z,22.40
2018-09-05T17:42:24.610Z,22.30
2018-09-05T17:44:52.979Z,22.30
2018-09-05T17:49:56.735Z,22.10
2018-09-05T17:52:25.077Z,22.00
2018-09-05T17:54:53.457Z,22.00
2018-09-05T17:57:21.956Z,21.90
2018-09-05T17:59:50.296Z,21.90
2018-09-05T18:02:18.762Z,21.90
2018-09-05T18:04:47.100Z,21.80
2018-09-05T18:07:16.273Z,21.70
2018-09-05T18:09:44.784Z,21.60
2018-09-05T18:12:13.075Z,21.50
2018-09-05T18:14:41.846Z,21.40
2018-09-05T18:17:10.207Z,21.30
2018-09-05T18:19:38.772Z,21.20
2018-09-05T18:22:07.128Z,21.10
2018-09-05T18:24:35.539Z,21.00
2018-09-05T18:27:03.914Z,21.00
2018-09-05T18:29:32.240Z,20.90
2018-09-05T18:32:00.743Z,20.80
2018-09-05T18:34:29.105Z,20.70
2018-09-05T18:36:57.529Z,20.70
2018-09-05T18:39:26.630Z,20.60
2018-09-05T18:41:54.950Z,20.60
2018-09-05T18:44:23.341Z,20.60
2018-09-05T18:46:52.305Z,20.50
2018-09-05T18:49:21.294Z,20.50
2018-09-05T18:51:49.633Z,20.50
2018-09-05T18:54:18.086Z,20.40
2018-09-05T18:56:46.447Z,20.40
2018-09-05T18:59:14.832Z,20.40
2018-09-05T19:01:43.251Z,20.30
2018-09-05T19:04:12.111Z,20.30
2018-09-05T19:06:40.509Z,20.30
2018-09-05T19:09:12.110Z,20.20
2018-09-05T19:11:41.902Z,20.20
2018-09-05T19:14:11.476Z,20.20
2018-09-05T19:16:39.936Z,20.10
2018-09-05T19:19:08.316Z,20.00
2018-09-05T19:21:36.716Z,20.00
2018-09-05T19:24:05.106Z,20.00
2018-09-05T19:26:41.244Z,20.00
2018-09-05T19:29:11.018Z,19.90
2018-09-05T19:31:39.427Z,19.80
2018-09-05T19:34:08.288Z,19.80
2018-09-05T19:36:36.744Z,19.70
2018-09-05T19:39:07.327Z,19.70
2018-09-05T19:41:36.643Z,19.70
2018-09-05T19:44:05.806Z,19.70
2018-09-05T19:46:34.345Z,19.70
2018-09-05T19:49:02.771Z,19.60
2018-09-05T19:51:31.842Z,19.50
2018-09-05T19:54:00.280Z,19.50
2018-09-05T19:56:28.695Z,19.40
2018-09-05T19:58:57.742Z,19.30
2018-09-05T20:01:26.116Z,19.20
2018-09-05T20:03:54.455Z,19.20
2018-09-05T20:06:23.166Z,19.10
2018-09-05T20:08:51.644Z,19.10
2018-09-05T20:11:19.967Z,19.10
2018-09-05T20:13:48.331Z,19.00
2018-09-05T20:16:16.790Z,19.00
2018-09-05T20:18:45.119Z,18.90
2018-09-05T20:21:13.475Z,18.90
2018-09-05T20:23:41.829Z,18.90
2018-09-05T20:26:10.281Z,18.80
2018-09-05T20:28:38.727Z,18.70
2018-09-05T20:31:07.120Z,18.60
2018-09-05T20:33:35.474Z,18.60
2018-09-05T20:36:03.830Z,18.60
2018-09-05T20:38:32.207Z,18.50
2018-09-05T20:41:00.662Z,18.50
2018-09-05T20:43:29.175Z,18.50
2018-09-05T20:45:57.526Z,18.50
2018-09-05T20:48:25.881Z,18.50
2018-09-05T20:50:54.230Z,18.50
2018-09-05T20:53:22.602Z,18.50
2018-09-05T20:55:51.062Z,18.50
2018-09-05T20:58:19.404Z,18.50
2018-09-05T21:00:47.752Z,18.50
2018-09-05T21:03:16.097Z,18.50
2018-09-05T21:05:44.448Z,18.60
2018-09-05T21:08:12.839Z,18.50
2018-09-05T21:10:41.279Z,18.50
2018-09-05T21:13:09.644Z,18.50
2018-09-05T21:15:38.127Z,18.60
2018-09-05T21:18:10.912Z,18.60
2018-09-05T21:20:39.188Z,18.60
2018-09-05T21:23:07.511Z,18.60
2018-09-05T21:25:42.639Z,18.60
2018-09-05T21:28:11.011Z,18.60
2018-09-05T21:30:39.350Z,18.60
2018-09-05T21:33:07.696Z,18.50
2018-09-05T21:35:36.039Z,18.50
2018-09-05T21:38:04.569Z,18.50
2018-09-05T21:40:33.507Z,18.40
2018-09-05T21:43:01.907Z,18.30
2018-09-05T21:45:30.357Z,18.20
2018-09-05T21:47:58.700Z,18.10
2018-09-05T21:50:27.103Z,18.00
2018-09-05T21:52:55.518Z,17.90
2018-09-05T21:55:23.857Z,17.80
2018-09-05T21:57:52.260Z,17.70
2018-09-05T22:00:20.599Z,17.60
2018-09-05T22:02:48.961Z,17.60
2018-09-05T22:05:17.327Z,17.60
2018-09-05T22:07:45.724Z,17.70
2018-09-05T22:10:14.135Z,17.80
2018-09-05T22:12:42.523Z,17.80
2018-09-05T22:15:10.903Z,17.70
2018-09-05T22:17:40.015Z,17.70
2018-09-05T22:20:08.603Z,17.70
2018-09-05T22:22:36.973Z,17.70
2018-09-05T22:25:05.509Z,17.70
2018-09-05T22:27:33.890Z,17.70
2018-09-05T22:30:02.243Z,17.70
2018-09-05T22:32:30.578Z,17.70
2018-09-05T22:34:58.937Z,17.70
2018-09-05T22:37:27.304Z,17.60
2018-09-05T22:39:55.657Z,17.60
2018-09-05T22:42:24.025Z,17.50
2018-09-05T22:45:10.149Z,17.50
2018-09-05T22:50:02.702Z,17.40
2018-09-05T22:52:55.217Z,17.40
2018-09-05T22:57:53.614Z,17.30
2018-09-05T23:00:40.522Z,17.20
2018-09-05T23:03:20.198Z,17.10
2018-09-05T23:05:58.416Z,17.10
2018-09-05T23:08:38.386Z,17.10
2018-09-05T23:11:23.524Z,17.00
2018-09-05T23:15:04.845Z,17.00
2018-09-05T23:19:51.946Z,16.90
2018-09-05T23:22:20.314Z,16.90
2018-09-05T23:24:48.765Z,16.90
2018-09-05T23:27:17.104Z,16.80
2018-09-05T23:29:45.481Z,16.80
2018-09-05T23:32:13.837Z,16.80
2018-09-05T23:34:42.187Z,16.80
2018-09-05T23:37:11.131Z,16.70
2018-09-05T23:39:39.569Z,16.70
2018-09-05T23:42:07.881Z,16.70
2018-09-05T23:44:36.327Z,16.70
2018-09-05T23:47:04.971Z,16.60
2018-09-05T23:49:33.417Z,16.60
2018-09-05T23:52:01.781Z,16.60
2018-09-05T23:54:30.116Z,16.60
2018-09-05T23:56:59.075Z,16.50
2018-09-05T23:59:27.414Z,16.50
